createdAt,value
2022-12-20T00:00:39.787Z,971.05
2022-12-20T00:01:29.851Z,971.05
2022-12-20T00:02:19.905Z,971.06
2022-12-20T00:03:09.791Z,971.04
2022-12-20T00:03:59.778Z,970.95
2022-12-20T00:04:49.764Z,970.97
2022-12-20T00:05:39.745Z,970.96
2022-12-20T00:06:29.739Z,970.95
2022-12-20T00:07:19.745Z,970.92
2022-12-20T00:08:09.706Z,970.91
2022-12-20T00:08:59.719Z,970.88
2022-12-20T00:09:49.701Z,970.85
2022-12-20T00:10:39.688Z,970.90
2022-12-20T00:11:29.668Z,970.85
2022-12-20T00:12:19.666Z,970.83
2022-12-20T00:13:09.659Z,970.76
2022-12-20T00:13:59.694Z,970.77
2022-12-20T00:14:49.650Z,970.79
2022-12-20T00:15:39.651Z,970.69
2022-12-20T00:16:29.611Z,970.66
2022-12-20T00:17:19.666Z,970.69
2022-12-20T00:18:09.723Z,970.67
2022-12-20T00:18:59.604Z,970.64
2022-12-20T00:19:49.629Z,970.66
2022-12-20T00:20:39.571Z,970.70
2022-12-20T00:21:29.569Z,970.66
2022-12-20T00:22:19.591Z,970.68
2022-12-20T00:23:09.543Z,970.67
2022-12-20T00:23:59.547Z,970.66
2022-12-20T00:24:49.518Z,970.67
2022-12-20T00:25:39.516Z,970.60
2022-12-20T00:26:29.500Z,970.60
2022-12-20T00:27:19.494Z,970.57
2022-12-20T00:28:09.485Z,970.57
2022-12-20T00:28:59.518Z,970.51
2022-12-20T00:29:49.474Z,970.56
2022-12-20T00:30:39.453Z,970.59
2022-12-20T00:31:29.499Z,970.62
2022-12-20T00:32:19.442Z,970.62
2022-12-20T00:33:09.428Z,970.60
2022-12-20T00:33:59.424Z,970.59
2022-12-20T00:34:49.402Z,970.59
2022-12-20T00:35:39.418Z,970.60
2022-12-20T00:36:29.403Z,970.55
2022-12-20T00:37:19.379Z,970.60
2022-12-20T00:38:09.382Z,970.56
2022-12-20T00:38:59.422Z,970.59
2022-12-20T00:39:49.369Z,970.55
2022-12-20T00:40:39.369Z,970.60
2022-12-20T00:41:29.341Z,970.59
2022-12-20T00:42:19.359Z,970.57
2022-12-20T00:43:09.310Z,970.54
2022-12-20T00:43:59.372Z,970.53
2022-12-20T00:44:49.301Z,970.50
2022-12-20T00:45:39.307Z,970.49
2022-12-20T00:46:29.372Z,970.54
2022-12-20T00:47:19.383Z,970.56
2022-12-20T00:48:09.256Z,970.55
2022-12-20T00:48:59.268Z,970.55
2022-12-20T00:49:49.259Z,970.59
2022-12-20T00:50:39.247Z,970.60
2022-12-20T00:51:29.269Z,970.59
2022-12-20T00:52:19.221Z,970.57
2022-12-20T00:53:09.205Z,970.56
2022-12-20T00:53:59.282Z,970.55
2022-12-20T00:54:49.212Z,970.56
2022-12-20T00:55:39.189Z,970.58
2022-12-20T00:56:29.174Z,970.55
2022-12-20T00:57:19.157Z,970.56
2022-12-20T00:58:09.164Z,970.61
2022-12-20T00:58:59.165Z,970.60
2022-12-20T00:59:49.145Z,970.65
2022-12-20T01:00:39.202Z,970.59
2022-12-20T01:01:29.274Z,970.58
2022-12-20T01:02:19.320Z,970.64
2022-12-20T01:03:09.213Z,970.62
2022-12-20T01:03:59.092Z,970.60
2022-12-20T01:04:49.102Z,970.57
2022-12-20T01:05:39.076Z,970.57
2022-12-20T01:06:29.056Z,970.62
2022-12-20T01:07:19.077Z,970.58
2022-12-20T01:08:09.041Z,970.62
2022-12-20T01:08:59.051Z,970.63
2022-12-20T01:09:49.027Z,970.65
2022-12-20T01:10:39.025Z,970.60
2022-12-20T01:11:29.011Z,970.65
2022-12-20T01:12:19.026Z,970.61
2022-12-20T01:13:08.982Z,970.63
2022-12-20T01:13:58.981Z,970.64
2022-12-20T01:14:48.976Z,970.61
2022-12-20T01:15:38.963Z,970.59
2022-12-20T01:16:29.008Z,970.55
2022-12-20T01:17:18.945Z,970.58
2022-12-20T01:18:08.920Z,970.56
2022-12-20T01:18:58.938Z,970.57
2022-12-20T01:19:48.910Z,970.52
2022-12-20T01:20:38.918Z,970.54
2022-12-20T01:21:28.903Z,970.53
2022-12-20T01:22:18.892Z,970.48
2022-12-20T01:23:08.881Z,970.55
2022-12-20T01:23:58.903Z,970.48
2022-12-20T01:24:48.871Z,970.47
2022-12-20T01:25:38.853Z,970.44
2022-12-20T01:26:28.979Z,970.41
2022-12-20T01:27:18.886Z,970.45
2022-12-20T01:28:08.828Z,970.54
2022-12-20T01:28:58.827Z,970.45
2022-12-20T01:29:48.818Z,970.44
2022-12-20T01:30:38.798Z,970.40
2022-12-20T01:31:28.835Z,970.32
2022-12-20T01:32:18.943Z,970.34
2022-12-20T01:33:08.789Z,970.32
2022-12-20T01:33:58.781Z,970.29
2022-12-20T01:34:48.747Z,970.27
2022-12-20T01:35:38.738Z,970.31
2022-12-20T01:36:28.744Z,970.31
2022-12-20T01:37:18.719Z,970.28
2022-12-20T01:38:08.712Z,970.28
2022-12-20T01:38:58.711Z,970.33
2022-12-20T01:39:48.707Z,970.35
2022-12-20T01:40:38.686Z,970.36
2022-12-20T01:41:28.692Z,970.33
2022-12-20T01:42:18.679Z,970.34
2022-12-20T01:43:08.654Z,970.31
2022-12-20T01:43:58.664Z,970.37
2022-12-20T01:44:48.650Z,970.38
2022-12-20T01:45:38.676Z,970.37
2022-12-20T01:46:28.723Z,970.31
2022-12-20T01:47:18.616Z,970.35
2022-12-20T01:48:08.596Z,970.30
2022-12-20T01:48:58.593Z,970.31
2022-12-20T01:49:48.602Z,970.29
2022-12-20T01:50:38.575Z,970.31
2022-12-20T01:51:28.609Z,970.28
2022-12-20T01:52:18.578Z,970.27
2022-12-20T01:53:08.543Z,970.38
2022-12-20T01:53:58.552Z,970.35
2022-12-20T01:54:48.534Z,970.31
2022-12-20T01:55:38.520Z,970.29
2022-12-20T01:56:28.500Z,970.31
2022-12-20T01:57:18.502Z,970.24
2022-12-20T01:58:08.480Z,970.20
2022-12-20T01:58:58.484Z,970.19
2022-12-20T01:59:48.488Z,970.23
2022-12-20T02:00:38.472Z,970.23
2022-12-20T02:01:28.531Z,970.24
2022-12-20T02:02:18.628Z,970.24
2022-12-20T02:03:08.648Z,970.20
2022-12-20T02:03:58.437Z,970.19
2022-12-20T02:04:48.427Z,970.13
2022-12-20T02:05:38.438Z,970.11
2022-12-20T02:06:28.402Z,970.15
2022-12-20T02:07:18.402Z,970.12
2022-12-20T02:08:08.376Z,970.15
2022-12-20T02:08:58.388Z,970.14
2022-12-20T02:09:48.382Z,970.13
2022-12-20T02:10:38.381Z,970.09
2022-12-20T02:11:28.340Z,970.12
2022-12-20T02:12:18.338Z,970.06
2022-12-20T02:13:08.338Z,970.08
2022-12-20T02:13:58.331Z,970.09
2022-12-20T02:14:48.319Z,970.10
2022-12-20T02:15:38.299Z,970.02
2022-12-20T02:16:28.313Z,970.09
2022-12-20T02:17:18.285Z,970.10
2022-12-20T02:18:08.255Z,970.08
2022-12-20T02:18:58.262Z,970.10
2022-12-20T02:19:48.260Z,970.11
2022-12-20T02:20:38.250Z,970.08
2022-12-20T02:21:28.241Z,970.10
2022-12-20T02:22:18.234Z,970.06
2022-12-20T02:23:08.227Z,970.08
2022-12-20T02:23:58.215Z,970.03
2022-12-20T02:24:48.188Z,969.99
2022-12-20T02:25:38.175Z,970.09
2022-12-20T02:26:28.176Z,970.07
2022-12-20T02:27:18.165Z,970.03
2022-12-20T02:28:08.154Z,970.03
2022-12-20T02:28:58.144Z,970.00
2022-12-20T02:29:48.153Z,970.01
2022-12-20T02:30:38.130Z,970.02
2022-12-20T02:31:28.163Z,970.05
2022-12-20T02:32:18.224Z,970.01
2022-12-20T02:33:08.104Z,969.98
2022-12-20T02:33:58.116Z,969.99
2022-12-20T02:34:48.091Z,970.05
2022-12-20T02:35:38.075Z,970.02
2022-12-20T02:36:28.086Z,970.07
2022-12-20T02:37:18.053Z,970.04
2022-12-20T02:38:08.048Z,970.02
2022-12-20T02:38:58.041Z,970.01
2022-12-20T02:39:48.049Z,969.95
2022-12-20T02:40:38.018Z,969.96
2022-12-20T02:41:28.010Z,969.95
2022-12-20T02:42:18.001Z,969.89
2022-12-20T02:43:08.003Z,969.88
2022-12-20T02:43:57.991Z,969.90
2022-12-20T02:44:47.984Z,969.88
2022-12-20T02:45:37.998Z,969.83
2022-12-20T02:46:28.090Z,969.87
2022-12-20T02:47:17.938Z,969.79
2022-12-20T02:48:07.962Z,969.81
2022-12-20T02:48:57.920Z,969.79
2022-12-20T02:49:47.939Z,969.80
2022-12-20T02:50:37.906Z,969.80
2022-12-20T02:51:27.899Z,969.71
2022-12-20T02:52:17.905Z,969.70
2022-12-20T02:53:07.886Z,969.72
2022-12-20T02:53:57.892Z,969.68
2022-12-20T02:54:47.859Z,969.65
2022-12-20T02:55:37.847Z,969.68
2022-12-20T02:56:27.857Z,969.66
2022-12-20T02:57:17.825Z,969.66
2022-12-20T02:58:07.828Z,969.62
2022-12-20T02:58:57.814Z,969.64
2022-12-20T02:59:47.825Z,969.68
2022-12-20T03:00:37.785Z,969.67
2022-12-20T03:01:27.917Z,969.73
2022-12-20T03:02:17.969Z,969.80
2022-12-20T03:03:07.883Z,969.79
2022-12-20T03:03:57.769Z,969.81
2022-12-20T03:04:47.765Z,969.76
2022-12-20T03:05:37.736Z,969.77
2022-12-20T03:06:27.734Z,969.80
2022-12-20T03:07:17.737Z,969.76
2022-12-20T03:08:07.715Z,969.77
2022-12-20T03:08:57.708Z,969.77
2022-12-20T03:09:47.703Z,969.74
2022-12-20T03:10:37.699Z,969.72
2022-12-20T03:11:27.683Z,969.74
2022-12-20T03:12:17.686Z,969.73
2022-12-20T03:13:07.667Z,969.66
2022-12-20T03:13:57.659Z,969.69
2022-12-20T03:14:47.668Z,969.71
2022-12-20T03:15:37.658Z,969.71
2022-12-20T03:16:27.647Z,969.67
2022-12-20T03:17:17.691Z,969.61
2022-12-20T03:18:07.606Z,969.65
2022-12-20T03:18:57.590Z,969.67
2022-12-20T03:19:47.605Z,969.61
2022-12-20T03:20:37.573Z,969.60
2022-12-20T03:21:27.573Z,969.57
2022-12-20T03:22:17.548Z,969.58
2022-12-20T03:23:07.541Z,969.57
2022-12-20T03:23:57.537Z,969.56
2022-12-20T03:24:47.549Z,969.55
2022-12-20T03:25:37.520Z,969.55
2022-12-20T03:26:27.544Z,969.51
2022-12-20T03:27:17.516Z,969.53
2022-12-20T03:28:07.517Z,969.54
2022-12-20T03:28:57.491Z,969.49
2022-12-20T03:29:47.501Z,969.48
2022-12-20T03:30:37.501Z,969.47
2022-12-20T03:31:27.527Z,969.49
2022-12-20T03:32:17.458Z,969.54
2022-12-20T03:33:07.437Z,969.51
2022-12-20T03:33:57.428Z,969.52
2022-12-20T03:34:47.437Z,969.55
2022-12-20T03:35:37.404Z,969.53
2022-12-20T03:36:27.421Z,969.51
2022-12-20T03:37:17.397Z,969.45
2022-12-20T03:38:07.384Z,969.42
2022-12-20T03:38:57.366Z,969.44
2022-12-20T03:39:47.389Z,969.46
2022-12-20T03:40:37.353Z,969.47
2022-12-20T03:41:27.394Z,969.44
2022-12-20T03:42:17.340Z,969.46
2022-12-20T03:43:07.337Z,969.38
2022-12-20T03:43:57.315Z,969.39
2022-12-20T03:44:47.379Z,969.37
2022-12-20T03:45:37.296Z,969.31
2022-12-20T03:46:27.346Z,969.34
2022-12-20T03:47:17.291Z,969.41
2022-12-20T03:48:07.276Z,969.45
2022-12-20T03:48:57.263Z,969.45
2022-12-20T03:49:47.272Z,969.51
2022-12-20T03:50:37.333Z,969.50
2022-12-20T03:51:27.239Z,969.50
2022-12-20T03:52:17.228Z,969.54
2022-12-20T03:53:07.221Z,969.57
2022-12-20T03:53:57.217Z,969.59
2022-12-20T03:54:47.215Z,969.60
2022-12-20T03:55:37.187Z,969.59
2022-12-20T03:56:27.195Z,969.54
2022-12-20T03:57:17.171Z,969.57
2022-12-20T03:58:07.164Z,969.60
2022-12-20T03:58:57.167Z,969.63
2022-12-20T03:59:47.161Z,969.58
2022-12-20T04:00:37.137Z,969.57
2022-12-20T04:01:27.222Z,969.62
2022-12-20T04:02:17.272Z,969.58
2022-12-20T04:03:07.199Z,969.54
2022-12-20T04:03:57.239Z,969.56
2022-12-20T04:04:47.101Z,969.50
2022-12-20T04:05:37.081Z,969.49
2022-12-20T04:06:27.072Z,969.49
2022-12-20T04:07:17.068Z,969.48
2022-12-20T04:08:07.056Z,969.48
2022-12-20T04:08:57.034Z,969.52
2022-12-20T04:09:47.056Z,969.46
2022-12-20T04:10:37.037Z,969.51
2022-12-20T04:11:27.010Z,969.51
2022-12-20T04:12:17.012Z,969.47
2022-12-20T04:13:07.015Z,969.50
2022-12-20T04:13:56.981Z,969.56
2022-12-20T04:14:47.002Z,969.52
2022-12-20T04:15:36.982Z,969.50
2022-12-20T04:16:27.027Z,969.52
2022-12-20T04:17:16.959Z,969.52
2022-12-20T04:18:06.939Z,969.48
2022-12-20T04:18:56.936Z,969.50
2022-12-20T04:19:46.941Z,969.49
2022-12-20T04:20:36.925Z,969.55
2022-12-20T04:21:26.899Z,969.54
2022-12-20T04:22:16.889Z,969.49
2022-12-20T04:23:06.891Z,969.55
2022-12-20T04:23:56.885Z,969.57
2022-12-20T04:24:46.890Z,969.51
2022-12-20T04:25:36.860Z,969.50
2022-12-20T04:26:26.885Z,969.52
2022-12-20T04:27:16.842Z,969.51
2022-12-20T04:28:06.857Z,969.53
2022-12-20T04:28:56.829Z,969.54
2022-12-20T04:29:46.817Z,969.55
2022-12-20T04:30:36.807Z,969.56
2022-12-20T04:31:26.911Z,969.56
2022-12-20T04:32:16.787Z,969.52
2022-12-20T04:33:06.787Z,969.52
2022-12-20T04:33:56.765Z,969.50
2022-12-20T04:34:46.788Z,969.52
2022-12-20T04:35:36.746Z,969.50
2022-12-20T04:36:26.762Z,969.44
2022-12-20T04:37:16.731Z,969.43
2022-12-20T04:38:06.736Z,969.41
2022-12-20T04:38:56.717Z,969.46
2022-12-20T04:39:46.733Z,969.44
2022-12-20T04:40:36.689Z,969.43
2022-12-20T04:41:26.691Z,969.43
2022-12-20T04:42:16.664Z,969.43
2022-12-20T04:43:06.673Z,969.40
2022-12-20T04:43:56.664Z,969.39
2022-12-20T04:44:46.663Z,969.40
2022-12-20T04:45:36.632Z,969.38
2022-12-20T04:46:26.694Z,969.38
2022-12-20T04:47:16.619Z,969.38
2022-12-20T04:48:37.073Z,969.39
2022-12-20T04:48:59.288Z,969.35
2022-12-20T04:49:46.612Z,969.37
2022-12-20T04:50:36.584Z,969.37
2022-12-20T04:51:26.579Z,969.35
2022-12-20T04:52:16.560Z,969.34
2022-12-20T04:53:06.571Z,969.32
2022-12-20T04:53:56.560Z,969.30
2022-12-20T04:54:46.552Z,969.34
2022-12-20T04:55:36.542Z,969.35
2022-12-20T04:56:26.524Z,969.35
2022-12-20T04:57:16.513Z,969.39
2022-12-20T04:58:07.902Z,969.36
2022-12-20T04:58:56.487Z,969.34
2022-12-20T04:59:46.481Z,969.33
2022-12-20T05:00:40.401Z,969.31
2022-12-20T05:01:26.683Z,969.24
2022-12-20T05:02:16.540Z,969.24
2022-12-20T05:03:06.771Z,969.33
2022-12-20T05:03:56.506Z,969.33
2022-12-20T05:04:46.429Z,969.26
2022-12-20T05:05:36.431Z,969.27
2022-12-20T05:06:26.410Z,969.28
2022-12-20T05:07:16.390Z,969.28
2022-12-20T05:08:06.425Z,969.26
2022-12-20T05:08:56.368Z,969.21
2022-12-20T05:09:46.378Z,969.21
2022-12-20T05:10:36.382Z,969.25
2022-12-20T05:11:26.359Z,969.27
2022-12-20T05:12:16.350Z,969.26
2022-12-20T05:13:09.377Z,969.32
2022-12-20T05:13:56.324Z,969.30
2022-12-20T05:14:46.319Z,969.27
2022-12-20T05:15:36.340Z,969.28
2022-12-20T05:16:26.437Z,969.26
2022-12-20T05:17:16.292Z,969.31
2022-12-20T05:18:06.287Z,969.29
2022-12-20T05:18:56.288Z,969.28
2022-12-20T05:19:46.256Z,969.28
2022-12-20T05:20:36.265Z,969.26
2022-12-20T05:21:26.240Z,969.24
2022-12-20T05:22:16.231Z,969.33
2022-12-20T05:23:06.225Z,969.31
2022-12-20T05:23:56.231Z,969.29
2022-12-20T05:24:46.213Z,969.27
2022-12-20T05:25:36.213Z,969.27
2022-12-20T05:26:26.184Z,969.27
2022-12-20T05:27:16.172Z,969.28
2022-12-20T05:28:06.164Z,969.26
2022-12-20T05:28:56.155Z,969.22
2022-12-20T05:29:46.153Z,969.23
2022-12-20T05:30:36.158Z,969.22
2022-12-20T05:31:26.208Z,969.25
2022-12-20T05:32:16.125Z,969.23
2022-12-20T05:33:06.115Z,969.23
2022-12-20T05:33:56.097Z,969.22
2022-12-20T05:34:46.105Z,969.19
2022-12-20T05:35:36.094Z,969.19
2022-12-20T05:36:26.089Z,969.18
2022-12-20T05:37:16.075Z,969.16
2022-12-20T05:38:06.120Z,969.19
2022-12-20T05:39:03.378Z,969.21
2022-12-20T05:39:47.041Z,969.17
2022-12-20T05:40:36.041Z,969.17
2022-12-20T05:41:26.021Z,969.13
2022-12-20T05:42:16.001Z,969.13
2022-12-20T05:43:06.004Z,969.13
2022-12-20T05:43:56.004Z,969.18
2022-12-20T05:44:45.979Z,969.16
2022-12-20T05:45:35.980Z,969.16
2022-12-20T05:46:26.015Z,969.16
2022-12-20T05:47:15.949Z,969.22
2022-12-20T05:48:05.960Z,969.21
2022-12-20T05:48:55.959Z,969.17
2022-12-20T05:49:45.930Z,969.15
2022-12-20T05:50:35.965Z,969.22
2022-12-20T05:51:25.919Z,969.18
2022-12-20T05:52:15.905Z,969.20
2022-12-20T05:53:11.228Z,969.17
2022-12-20T05:53:56.887Z,969.21
2022-12-20T05:54:45.879Z,969.19
2022-12-20T05:55:35.893Z,969.19
2022-12-20T05:56:25.851Z,969.17
2022-12-20T05:57:15.882Z,969.18
2022-12-20T05:58:05.829Z,969.23
2022-12-20T05:58:55.843Z,969.24
2022-12-20T05:59:45.828Z,969.21
2022-12-20T06:00:35.818Z,969.26
2022-12-20T06:01:25.880Z,969.21
2022-12-20T06:02:15.896Z,969.22
2022-12-20T06:03:05.977Z,969.21
2022-12-20T06:03:55.953Z,969.18
2022-12-20T06:04:45.782Z,969.23
2022-12-20T06:05:35.767Z,969.21
2022-12-20T06:06:25.770Z,969.16
2022-12-20T06:07:15.746Z,969.15
2022-12-20T06:08:05.726Z,969.17
2022-12-20T06:08:55.724Z,969.19
2022-12-20T06:09:45.697Z,969.12
2022-12-20T06:10:35.715Z,969.17
2022-12-20T06:11:29.871Z,969.14
2022-12-20T06:12:15.692Z,969.16
2022-12-20T06:13:05.665Z,969.14
2022-12-20T06:13:55.669Z,969.17
2022-12-20T06:14:45.651Z,969.16
2022-12-20T06:15:35.659Z,969.14
2022-12-20T06:16:25.701Z,969.11
2022-12-20T06:17:15.624Z,969.19
2022-12-20T06:18:05.618Z,969.10
2022-12-20T06:18:55.610Z,969.13
2022-12-20T06:19:45.605Z,969.20
2022-12-20T06:20:35.605Z,969.13
2022-12-20T06:21:25.577Z,969.07
2022-12-20T06:22:15.597Z,969.04
2022-12-20T06:23:05.551Z,969.05
2022-12-20T06:23:55.551Z,969.01
2022-12-20T06:24:48.564Z,969.05
2022-12-20T06:25:35.584Z,969.01
2022-12-20T06:26:25.536Z,969.00
2022-12-20T06:27:15.542Z,968.97
2022-12-20T06:28:05.502Z,969.01
2022-12-20T06:28:55.515Z,969.02
2022-12-20T06:29:45.513Z,969.01
2022-12-20T06:30:35.488Z,969.03
2022-12-20T06:31:25.509Z,969.05
2022-12-20T06:32:15.461Z,969.07
2022-12-20T06:33:05.532Z,969.06
2022-12-20T06:33:55.438Z,969.05
2022-12-20T06:34:45.432Z,969.07
2022-12-20T06:35:35.452Z,969.14
2022-12-20T06:36:25.407Z,969.11
2022-12-20T06:37:15.402Z,969.09
2022-12-20T06:38:05.399Z,969.09
2022-12-20T06:38:55.389Z,969.10
2022-12-20T06:39:45.396Z,969.12
2022-12-20T06:40:35.393Z,969.09
2022-12-20T06:41:25.371Z,969.11
2022-12-20T06:42:15.348Z,969.12
2022-12-20T06:43:05.340Z,969.09
2022-12-20T06:43:55.338Z,969.10
2022-12-20T06:44:45.328Z,969.10
2022-12-20T06:45:41.281Z,969.13
2022-12-20T06:46:26.345Z,969.14
2022-12-20T06:47:15.318Z,969.13
2022-12-20T06:48:05.277Z,969.09
2022-12-20T06:48:55.281Z,969.12
2022-12-20T06:49:45.259Z,969.09
2022-12-20T06:50:35.271Z,969.05
2022-12-20T06:51:25.246Z,969.06
2022-12-20T06:52:15.239Z,969.11
2022-12-20T06:53:05.227Z,969.14
2022-12-20T06:53:55.246Z,969.11
2022-12-20T06:54:45.210Z,969.04
2022-12-20T06:55:35.227Z,969.06
2022-12-20T06:56:25.184Z,969.08
2022-12-20T06:57:15.190Z,969.13
2022-12-20T06:58:05.164Z,969.06
2022-12-20T06:58:55.164Z,969.05
2022-12-20T06:59:45.157Z,969.10
2022-12-20T07:00:35.162Z,969.13
2022-12-20T07:01:25.296Z,969.18
2022-12-20T07:02:15.340Z,969.16
2022-12-20T07:03:05.248Z,969.08
2022-12-20T07:03:55.172Z,969.13
2022-12-20T07:04:45.113Z,969.18
2022-12-20T07:05:35.111Z,969.20
2022-12-20T07:06:25.084Z,969.20
2022-12-20T07:07:15.068Z,969.23
2022-12-20T07:08:05.068Z,969.17
2022-12-20T07:08:55.054Z,969.16
2022-12-20T07:09:45.053Z,969.25
2022-12-20T07:10:35.053Z,969.24
2022-12-20T07:11:25.022Z,969.20
2022-12-20T07:12:15.021Z,969.19
2022-12-20T07:13:05.001Z,969.19
2022-12-20T07:13:54.991Z,969.15
2022-12-20T07:14:44.983Z,969.14
2022-12-20T07:15:35.001Z,969.21
2022-12-20T07:16:24.987Z,969.21
2022-12-20T07:17:14.959Z,969.21
2022-12-20T07:18:04.951Z,969.17
2022-12-20T07:18:54.965Z,969.16
2022-12-20T07:19:50.504Z,969.15
2022-12-20T07:20:35.942Z,969.20
2022-12-20T07:21:24.916Z,969.15
2022-12-20T07:22:14.908Z,969.11
2022-12-20T07:23:04.887Z,969.10
2022-12-20T07:23:54.911Z,969.11
2022-12-20T07:24:44.881Z,969.12
2022-12-20T07:25:34.884Z,969.07
2022-12-20T07:26:24.905Z,969.06
2022-12-20T07:27:14.907Z,969.06
2022-12-20T07:28:04.836Z,969.04
2022-12-20T07:28:54.829Z,969.01
2022-12-20T07:29:44.827Z,969.04
2022-12-20T07:30:34.836Z,968.99
2022-12-20T07:31:24.855Z,968.97
2022-12-20T07:32:14.836Z,968.98
2022-12-20T07:33:04.786Z,969.01
2022-12-20T07:33:54.808Z,968.98
2022-12-20T07:34:44.761Z,968.97
2022-12-20T07:35:34.818Z,969.02
2022-12-20T07:36:24.745Z,969.01
2022-12-20T07:37:14.744Z,968.96
2022-12-20T07:38:04.745Z,968.98
2022-12-20T07:38:54.725Z,968.94
2022-12-20T07:39:44.713Z,968.98
2022-12-20T07:40:34.717Z,968.91
2022-12-20T07:41:24.695Z,968.90
2022-12-20T07:42:14.946Z,968.88
2022-12-20T07:43:04.680Z,968.93
2022-12-20T07:43:54.671Z,968.96
2022-12-20T07:44:44.668Z,968.93
2022-12-20T07:45:34.763Z,968.91
2022-12-20T07:46:24.693Z,968.83
2022-12-20T07:47:14.639Z,968.84
2022-12-20T07:48:10.283Z,968.86
2022-12-20T07:48:55.622Z,968.81
2022-12-20T07:49:44.592Z,968.79
2022-12-20T07:50:34.631Z,968.80
2022-12-20T07:51:24.577Z,968.85
2022-12-20T07:52:14.579Z,968.86
2022-12-20T07:53:04.595Z,968.80
2022-12-20T07:53:54.556Z,968.79
2022-12-20T07:54:44.541Z,968.84
2022-12-20T07:55:34.663Z,968.77
2022-12-20T07:56:24.521Z,968.74
2022-12-20T07:57:14.519Z,968.74
2022-12-20T07:58:04.526Z,968.74
2022-12-20T07:58:54.502Z,968.75
2022-12-20T07:59:44.495Z,968.79
2022-12-20T08:00:34.498Z,968.76
2022-12-20T08:01:24.535Z,968.76
2022-12-20T08:02:14.714Z,968.77
2022-12-20T08:03:04.558Z,968.80
2022-12-20T08:03:54.490Z,968.80
2022-12-20T08:04:44.440Z,968.81
2022-12-20T08:05:34.448Z,968.78
2022-12-20T08:06:24.418Z,968.83
2022-12-20T08:07:14.423Z,968.77
2022-12-20T08:08:04.389Z,968.75
2022-12-20T08:08:54.398Z,968.76
2022-12-20T08:09:44.400Z,968.79
2022-12-20T08:10:34.389Z,968.79
2022-12-20T08:11:24.369Z,968.83
2022-12-20T08:12:14.352Z,968.75
2022-12-20T08:13:04.349Z,968.76
2022-12-20T08:13:58.037Z,968.79
2022-12-20T08:14:44.337Z,968.73
2022-12-20T08:15:34.326Z,968.76
2022-12-20T08:16:24.337Z,968.72
2022-12-20T08:17:14.347Z,968.72
2022-12-20T08:18:04.278Z,968.66
2022-12-20T08:18:54.277Z,968.69
2022-12-20T08:19:44.259Z,968.72
2022-12-20T08:20:34.264Z,968.73
2022-12-20T08:21:24.276Z,968.72
2022-12-20T08:22:14.253Z,968.72
2022-12-20T08:23:04.241Z,968.75
2022-12-20T08:23:54.236Z,968.74
2022-12-20T08:24:44.206Z,968.69
2022-12-20T08:25:40.967Z,968.73
2022-12-20T08:26:25.183Z,968.73
2022-12-20T08:27:14.185Z,968.70
2022-12-20T08:28:04.171Z,968.76
2022-12-20T08:28:54.186Z,968.76
2022-12-20T08:29:44.154Z,968.78
2022-12-20T08:30:34.177Z,968.80
2022-12-20T08:31:24.192Z,968.75
2022-12-20T08:32:14.159Z,968.78
2022-12-20T08:33:04.118Z,968.71
2022-12-20T08:33:54.125Z,968.72
2022-12-20T08:34:44.124Z,968.76
2022-12-20T08:35:34.116Z,968.76
2022-12-20T08:36:24.091Z,968.75
2022-12-20T08:37:15.264Z,968.70
2022-12-20T08:38:04.066Z,968.72
2022-12-20T08:38:54.056Z,968.68
2022-12-20T08:39:44.042Z,968.73
2022-12-20T08:40:34.074Z,968.68
2022-12-20T08:41:24.019Z,968.65
2022-12-20T08:42:14.027Z,968.58
2022-12-20T08:43:09.992Z,968.64
2022-12-20T08:43:55.002Z,968.65
2022-12-20T08:44:43.986Z,968.59
2022-12-20T08:45:34.001Z,968.57
2022-12-20T08:46:24.011Z,968.54
2022-12-20T08:47:13.961Z,968.56
2022-12-20T08:48:03.947Z,968.50
2022-12-20T08:48:53.942Z,968.49
2022-12-20T08:49:47.665Z,968.54
2022-12-20T08:50:33.939Z,968.56
2022-12-20T08:51:24.029Z,968.57
2022-12-20T08:52:13.920Z,968.55
2022-12-20T08:53:03.925Z,968.57
2022-12-20T08:53:53.896Z,968.55
2022-12-20T08:54:43.880Z,968.54
2022-12-20T08:55:33.909Z,968.50
2022-12-20T08:56:23.864Z,968.52
2022-12-20T08:57:13.860Z,968.49
2022-12-20T08:58:03.853Z,968.52
2022-12-20T08:58:53.857Z,968.48
2022-12-20T08:59:43.818Z,968.53
2022-12-20T09:00:33.921Z,968.60
2022-12-20T09:01:23.921Z,968.61
2022-12-20T09:02:14.048Z,968.51
2022-12-20T09:03:04.127Z,968.49
2022-12-20T09:03:53.864Z,968.52
2022-12-20T09:04:43.766Z,968.48
2022-12-20T09:05:33.775Z,968.45
2022-12-20T09:06:23.748Z,968.43
2022-12-20T09:07:13.744Z,968.47
2022-12-20T09:08:03.727Z,968.46
2022-12-20T09:08:53.726Z,968.39
2022-12-20T09:09:43.706Z,968.38
2022-12-20T09:10:33.725Z,968.45
2022-12-20T09:11:23.713Z,968.44
2022-12-20T09:12:13.683Z,968.51
2022-12-20T09:13:03.682Z,968.52
2022-12-20T09:13:53.673Z,968.60
2022-12-20T09:14:43.655Z,968.54
2022-12-20T09:15:33.710Z,968.52
2022-12-20T09:16:23.686Z,968.48
2022-12-20T09:17:13.649Z,968.53
2022-12-20T09:18:03.621Z,968.52
2022-12-20T09:18:55.645Z,968.52
2022-12-20T09:19:44.609Z,968.53
2022-12-20T09:20:33.615Z,968.57
2022-12-20T09:21:23.586Z,968.60
2022-12-20T09:22:13.583Z,968.58
2022-12-20T09:23:03.588Z,968.58
2022-12-20T09:23:53.555Z,968.59
2022-12-20T09:24:43.576Z,968.57
2022-12-20T09:25:33.552Z,968.54
2022-12-20T09:26:23.553Z,968.57
2022-12-20T09:27:13.551Z,968.52
2022-12-20T09:28:03.537Z,968.56
2022-12-20T09:28:53.502Z,968.58
2022-12-20T09:29:43.533Z,968.53
2022-12-20T09:30:33.490Z,968.54
2022-12-20T09:31:23.519Z,968.54
2022-12-20T09:32:13.467Z,968.45
2022-12-20T09:33:09.553Z,968.48
2022-12-20T09:33:54.441Z,968.44
2022-12-20T09:34:43.441Z,968.55
2022-12-20T09:35:33.436Z,968.57
2022-12-20T09:36:23.443Z,968.56
2022-12-20T09:37:13.418Z,968.51
2022-12-20T09:38:03.416Z,968.50
2022-12-20T09:38:53.396Z,968.50
2022-12-20T09:39:43.388Z,968.54
2022-12-20T09:40:33.369Z,968.49
2022-12-20T09:41:23.408Z,968.50
2022-12-20T09:42:13.364Z,968.49
2022-12-20T09:43:03.348Z,968.48
2022-12-20T09:44:00.348Z,968.43
2022-12-20T09:45:34.046Z,968.47
2022-12-20T09:45:44.346Z,968.50
2022-12-20T09:46:28.737Z,968.43
2022-12-20T09:47:18.746Z,968.47
2022-12-20T09:48:08.687Z,968.43
2022-12-20T09:48:58.675Z,968.45
2022-12-20T09:49:48.672Z,968.39
2022-12-20T09:50:38.689Z,968.36
2022-12-20T09:51:28.690Z,968.39
2022-12-20T09:52:18.631Z,968.40
2022-12-20T09:53:11.148Z,968.38
2022-12-20T09:53:59.647Z,968.29
2022-12-20T09:54:48.631Z,968.29
2022-12-20T09:55:38.600Z,968.32
2022-12-20T09:56:28.620Z,968.25
2022-12-20T09:57:19.859Z,968.23
2022-12-20T09:58:08.598Z,968.27
2022-12-20T09:58:58.564Z,968.26
2022-12-20T09:59:50.031Z,968.27
2022-12-20T10:00:38.551Z,968.19
2022-12-20T10:01:34.413Z,968.19
2022-12-20T10:02:55.299Z,968.13
2022-12-20T10:03:10.960Z,968.15
2022-12-20T10:03:58.665Z,968.16
2022-12-20T10:04:48.724Z,968.20
2022-12-20T10:05:41.446Z,968.22
2022-12-20T10:06:28.485Z,968.22
2022-12-20T10:07:18.490Z,968.20
2022-12-20T10:08:08.750Z,968.21
2022-12-20T10:08:58.481Z,968.15
2022-12-20T10:09:48.451Z,968.20
2022-12-20T10:10:38.438Z,968.21
2022-12-20T10:11:32.989Z,968.20
2022-12-20T10:12:21.706Z,968.17
2022-12-20T10:13:08.439Z,968.12
2022-12-20T10:13:58.397Z,968.15
2022-12-20T10:14:48.425Z,968.15
2022-12-20T10:15:38.424Z,968.13
2022-12-20T10:16:28.446Z,968.15
2022-12-20T10:17:20.737Z,968.13
2022-12-20T10:18:08.348Z,968.10
2022-12-20T10:18:58.337Z,968.10
2022-12-20T10:19:48.365Z,968.09
2022-12-20T10:20:38.324Z,968.06
2022-12-20T10:21:28.327Z,968.08
2022-12-20T10:22:18.368Z,968.05
2022-12-20T10:23:08.323Z,968.03
2022-12-20T10:23:58.287Z,968.04